Time;durP1;ratioP1;P1;durP2;ratioP2;P2;SDS_P1;SDS_P2;PMS_P1;PMS_P2;Temp;Humidity;BMP_temperature;BMP_pressure;BME280_temperature;BME280_humidity;BME280_pressure;Samples;Min_cycle;Max_cycle;Signal;HPM_P1;HPM_P2
2022/06/04 00:00:43;;;;;;;8.23;4.37;;;;;;;22.85;100.00;101661.81;2081291;28;20189;-68
2022/06/04 00:01:44;;;;;;;7.57;4.30;;;;;;;23.66;100.00;101799.22;2080999;28;20191;-68
2022/06/04 00:02:47;;;;;;;7.10;4.43;;;;;;;23.63;100.00;101786.06;2073814;28;20300;-67
2022/06/04 00:03:48;;;;;;;6.83;4.20;;;;;;;23.59;100.00;101790.38;2064893;28;20182;-67
2022/06/04 00:04:48;;;;;;;9.43;4.43;;;;;;;23.12;100.00;101708.69;2065158;28;20170;-67
2022/06/04 00:05:51;;;;;;;7.00;4.20;;;;;;;23.59;100.00;101787.56;2064903;28;20193;-68
2022/06/04 00:06:52;;;;;;;6.80;4.30;;;;;;;23.52;100.00;101794.41;2065540;28;20183;-68
2022/06/04 00:07:54;;;;;;;5.80;4.43;;;;;;;23.43;100.00;101788.13;2073763;28;20170;-68
2022/06/04 00:08:54;;;;;;;6.63;4.27;;;;;;;23.43;100.00;101785.28;2073599;28;20320;-68
2022/06/04 00:15:29;;;;;;;6.27;4.07;;;;;;;23.11;100.00;101738.25;2073842;28;20161;-67
2022/06/04 00:16:29;;;;;;;8.23;4.40;;;;;;;23.30;100.00;101790.47;2073817;28;20558;-67
2022/06/04 00:17:30;;;;;;;8.30;4.03;;;;;;;22.70;100.00;101677.25;2073592;28;20200;-67
2022/06/04 00:18:31;;;;;;;6.90;4.30;;;;;;;23.36;100.00;101777.19;2073620;28;20205;-67
2022/06/04 00:19:32;;;;;;;7.10;4.10;;;;;;;23.24;100.00;101767.00;2073650;28;20188;-67
2022/06/04 00:20:32;;;;;;;8.97;4.63;;;;;;;23.07;100.00;101743.31;2073698;28;20266;-67
2022/06/04 00:21:33;;;;;;;5.73;4.23;;;;;;;23.33;100.00;101781.78;2073681;28;20181;-68
2022/06/04 00:22:33;;;;;;;8.17;4.53;;;;;;;23.32;100.00;101774.56;2073677;28;20186;-67
2022/06/04 00:23:34;;;;;;;8.20;4.43;;;;;;;23.30;100.00;101771.47;2073631;28;20264;-67
2022/06/04 00:24:36;;;;;;;8.60;4.37;;;;;;;23.16;100.00;101748.84;2073683;28;20264;-67
2022/06/04 00:25:39;;;;;;;6.23;4.27;;;;;;;23.24;100.00;101758.53;2073652;28;20196;-67
2022/06/04 00:26:40;;;;;;;7.93;4.47;;;;;;;23.32;100.00;101762.47;2073615;28;20635;-68
2022/06/04 00:27:40;;;;;;;8.00;4.30;;;;;;;23.31;100.00;101758.09;2081050;28;20594;-67
2022/06/04 00:28:41;;;;;;;6.47;4.30;;;;;;;23.28;100.00;101768.34;2081189;28;20176;-68
2022/06/04 00:29:42;;;;;;;7.00;4.50;;;;;;;22.87;100.00;101721.44;2073664;28;20174;-67
2022/06/04 00:30:43;;;;;;;7.70;4.43;;;;;;;23.22;100.00;101763.88;2073590;28;20197;-67
2022/06/04 00:31:43;;;;;;;8.73;4.70;;;;;;;23.24;100.00;101767.00;2073579;28;20177;-67
2022/06/04 00:32:44;;;;;;;6.70;4.27;;;;;;;23.31;100.00;101764.53;2080996;28;20181;-67
2022/06/04 00:33:45;;;;;;;10.73;4.77;;;;;;;23.11;100.00;101738.25;2081263;28;20252;-68
2022/06/04 00:34:45;;;;;;;7.73;4.50;;;;;;;23.25;100.00;101762.91;2064848;28;20252;-67
2022/06/04 00:35:49;;;;;;;7.50;4.37;;;;;;;23.26;100.00;101764.44;2064821;28;20175;-67
2022/06/04 00:36:50;;;;;;;7.97;4.37;;;;;;;23.03;100.00;101725.81;2073508;28;20642;-67
2022/06/04 00:37:51;;;;;;;6.23;4.43;;;;;;;22.47;100.00;101649.94;2073464;28;20605;-68
2022/06/04 00:38:52;;;;;;;8.63;4.40;;;;;;;22.95;100.00;101713.34;2073689;28;20674;-68
2022/06/04 00:39:52;;;;;;;7.27;4.40;;;;;;;23.34;100.00;101766.38;2080992;28;20696;-68
2022/06/04 00:41:17;;;;;;;7.27;4.70;;;;;;;22.76;100.00;101693.00;2081141;28;20172;-67
2022/06/04 00:42:19;;;;;;;7.07;4.10;;;;;;;22.73;100.00;101668.56;2073527;28;20563;-67
2022/06/04 00:43:20;;;;;;;6.03;4.30;;;;;;;23.36;100.00;101780.81;2073532;28;20174;-67
2022/06/04 00:44:30;;;;;;;7.47;4.67;;;;;;;23.38;100.00;101769.78;2073530;28;20560;-67
2022/06/04 00:45:36;;;;;;;8.53;4.83;;;;;;;23.37;100.00;101775.91;2073497;28;20170;-68
2022/06/04 00:46:39;;;;;;;5.83;4.50;;;;;;;23.34;100.00;101786.16;2073555;28;20182;-68
2022/06/04 00:47:41;;;;;;;12.13;4.93;;;;;;;23.33;100.00;101781.03;2073391;28;20176;-67
2022/06/04 00:48:41;;;;;;;7.00;4.10;;;;;;;23.13;100.00;101741.38;2073502;28;20170;-68
2022/06/04 00:49:42;;;;;;;8.30;4.57;;;;;;;23.41;100.00;101788.59;2073439;28;20184;-67
2022/06/04 00:50:42;;;;;;;7.33;4.50;;;;;;;23.44;100.00;101784.00;2081000;28;20230;-68
2022/06/04 00:51:46;;;;;;;6.60;4.30;;;;;;;23.44;100.00;101786.84;2081061;28;20597;-68
2022/06/04 00:52:49;;;;;;;7.67;4.50;;;;;;;23.39;100.00;101787.53;2064654;28;20229;-68
2022/06/04 00:53:50;;;;;;;8.47;4.20;;;;;;;23.45;100.00;101792.00;2064681;28;20178;-67
2022/06/04 00:54:53;;;;;;;7.17;4.73;;;;;;;23.45;100.00;101789.19;2073444;28;20205;-67
2022/06/04 00:56:19;;;;;;;9.00;4.70;;;;;;;23.49;100.00;101803.09;2073503;28;20629;-67
2022/06/04 00:57:25;;;;;;;9.87;4.57;;;;;;;23.50;100.00;101794.09;2048360;29;20203;-68
2022/06/04 00:58:47;;;;;;;8.40;4.30;;;;;;;23.45;100.00;101789.19;2073396;28;20612;-68
2022/06/04 01:00:10;;;;;;;9.40;4.20;;;;;;;23.48;100.00;101798.69;2064553;28;20628;-67
2022/06/04 01:01:27;;;;;;;10.77;4.40;;;;;;;23.23;100.00;101769.03;2068019;28;20170;-68
2022/06/04 01:02:38;;;;;;;7.53;4.00;;;;;;;23.48;100.00;101804.34;2073399;28;20697;-68
2022/06/04 01:03:49;;;;;;;10.53;4.20;;;;;;;23.47;100.00;101806.44;2080927;28;20203;-69
2022/06/04 01:05:01;;;;;;;9.50;4.70;;;;;;;23.47;100.00;101800.78;2079670;28;20177;-68
2022/06/04 01:06:27;;;;;;;7.83;4.37;;;;;;;23.48;100.00;101807.97;2073366;28;20184;-68
2022/06/04 01:07:47;;;;;;;7.17;4.33;;;;;;;23.42;100.00;101804.28;2073331;28;20185;-68
2022/06/04 01:09:10;;;;;;;10.37;4.30;;;;;;;23.39;100.00;101802.44;2073385;28;20655;-67
2022/06/04 01:10:31;;;;;;;8.60;4.23;;;;;;;23.30;100.00;101796.13;2073345;28;20200;-67
2022/06/04 01:12:11;;;;;;;7.70;4.50;;;;;;;23.28;100.00;101801.53;2073370;28;20174;-67
2022/06/04 01:13:37;;;;;;;8.23;4.40;;;;;;;23.28;100.00;101795.88;2064478;28;20253;-67
2022/06/04 01:15:12;;;;;;;10.10;4.83;;;;;;;23.14;100.00;101791.00;2068342;28;20612;-68
2022/06/04 01:16:32;;;;;;;7.67;4.60;;;;;;;23.15;100.00;101792.53;2073430;28;20601;-67
2022/06/04 01:17:56;;;;;;;5.50;4.10;;;;;;;22.99;100.00;101773.28;2080860;28;20181;-67
2022/06/04 01:19:03;;;;;;;6.40;4.33;;;;;;;23.00;100.00;101786.13;2078325;28;20642;-68
2022/06/04 01:20:48;;;;;;;13.00;4.80;;;;;;;22.94;100.00;101779.63;2073245;28;20170;-67
2022/06/04 01:22:38;;;;;;;7.43;4.53;;;;;;;22.92;100.00;101782.94;2057661;28;20189;-68
2022/06/04 01:23:57;;;;;;;7.23;4.93;;;;;;;22.91;100.00;101786.25;2060007;28;20251;-67
2022/06/04 01:25:19;;;;;;;5.17;4.40;;;;;;;22.96;100.00;101779.91;2073243;28;20204;-67
2022/06/04 01:26:25;;;;;;;10.83;5.07;;;;;;;22.98;100.00;101774.56;2073255;28;20262;-67
2022/06/04 01:27:46;;;;;;;6.17;4.30;;;;;;;22.97;100.00;101773.75;2073370;28;20312;-68
2022/06/04 01:28:54;;;;;;;7.47;4.63;;;;;;;22.46;100.00;101699.97;2062636;28;20687;-67
2022/06/04 01:30:08;;;;;;;8.60;4.60;;;;;;;22.95;100.00;101773.50;2073374;28;20162;-68
2022/06/04 01:31:15;;;;;;;7.00;4.47;;;;;;;22.96;100.00;101772.22;2073324;28;20654;-67
2022/06/04 01:32:22;;;;;;;6.87;4.60;;;;;;;22.98;100.00;101774.56;2073336;28;20189;-67
2022/06/04 01:33:35;;;;;;;6.93;4.50;;;;;;;22.92;100.00;101773.69;2073254;28;20694;-68
2022/06/04 01:36:25;;;;;;;8.93;5.10;;;;;;;22.75;100.00;101767.75;2073385;28;20162;-68
2022/06/04 01:37:34;;;;;;;8.07;4.20;;;;;;;22.95;100.00;101786.84;2073189;28;20165;-67
2022/06/04 01:38:53;;;;;;;10.00;4.20;;;;;;;22.97;100.00;101793.56;2073294;28;20684;-67
2022/06/04 01:41:35;;;;;;;9.50;4.37;;;;;;;22.86;100.00;101778.44;2073371;28;20260;-67
2022/06/04 01:42:39;;;;;;;8.13;4.90;;;;;;;22.80;100.00;101758.59;2073323;28;20200;-68
2022/06/04 01:43:49;;;;;;;8.20;4.60;;;;;;;23.03;100.00;101799.31;2073265;28;20170;-68
2022/06/04 01:44:52;;;;;;;6.97;4.80;;;;;;;22.84;100.00;101770.50;2073317;28;20632;-67
2022/06/04 01:45:59;;;;;;;5.97;4.10;;;;;;;22.63;100.00;101737.00;2073170;28;20599;-68
2022/06/04 01:47:04;;;;;;;9.63;4.50;;;;;;;23.08;100.00;101798.63;2073254;28;20193;-68
2022/06/04 01:48:07;;;;;;;6.77;3.80;;;;;;;23.11;100.00;101804.06;2073220;28;20162;-68
2022/06/04 01:49:25;;;;;;;7.20;3.97;;;;;;;22.66;100.00;101742.44;2073207;28;20280;-67
2022/06/04 01:50:32;;;;;;;10.27;4.80;;;;;;;23.12;100.00;101807.66;2073095;28;20166;-68
2022/06/04 01:51:34;;;;;;;6.43;4.40;;;;;;;22.51;100.00;101721.13;2073203;28;20169;-68
2022/06/04 01:52:40;;;;;;;8.37;4.43;;;;;;;23.14;100.00;101803.06;2073222;28;20206;-68
2022/06/04 01:53:43;;;;;;;8.87;4.73;;;;;;;23.16;100.00;101803.38;2073216;28;20306;-68
2022/06/04 01:54:54;;;;;;;8.37;4.57;;;;;;;23.17;100.00;101806.97;2073075;28;20699;-67
2022/06/04 01:56:03;;;;;;;10.97;5.40;;;;;;;23.05;100.00;101793.94;2073383;28;20204;-68
2022/06/04 01:57:17;;;;;;;13.80;5.33;;;;;;;23.12;100.00;101808.44;2073308;28;20162;-68
2022/06/04 01:58:24;;;;;;;8.40;5.20;;;;;;;22.55;100.00;101728.13;2073085;28;20324;-68
2022/06/04 01:59:53;;;;;;;9.37;5.20;;;;;;;23.06;100.00;101812.44;2073169;28;20166;-68
2022/06/04 02:01:05;;;;;;;7.87;5.00;;;;;;;23.02;100.00;101811.88;2070858;28;20272;-67
2022/06/04 02:02:12;;;;;;;6.47;4.73;;;;;;;22.95;100.00;101807.41;2073150;28;20193;-68
2022/06/04 02:03:19;;;;;;;10.37;5.67;;;;;;;22.73;100.00;101795.72;2073081;28;20235;-68
2022/06/04 02:04:27;;;;;;;7.97;5.13;;;;;;;22.88;100.00;101816.28;2073126;28;20176;-68
2022/06/04 02:05:38;;;;;;;10.37;5.90;;;;;;;22.81;100.00;101824.38;2073169;28;20170;-68
2022/06/04 02:07:29;;;;;;;7.33;5.17;;;;;;;22.75;100.00;101823.50;2074770;28;20694;-68
2022/06/04 02:08:16;;;;;;;9.07;5.27;;;;;;;22.71;100.00;101823.69;2074481;28;20193;-68
2022/06/04 02:09:18;;;;;;;8.90;6.00;;;;;;;22.21;100.00;101765.50;2074671;28;20963;-68
2022/06/04 02:10:30;;;;;;;8.00;5.80;;;;;;;22.52;100.00;101808.19;2074625;28;20177;-68
2022/06/04 02:11:31;;;;;;;11.50;6.40;;;;;;;22.59;100.00;101833.25;2074632;28;20553;-68
2022/06/04 02:12:33;;;;;;;10.57;5.97;;;;;;;22.59;100.00;101832.47;2074365;28;20443;-68
2022/06/04 02:13:35;;;;;;;11.97;6.00;;;;;;;22.54;100.00;101836.75;2074617;28;20166;-68
2022/06/04 02:14:37;;;;;;;9.20;6.30;;;;;;;22.05;100.00;101779.31;2074567;28;20424;-69
2022/06/04 02:15:56;;;;;;;10.33;5.87;;;;;;;22.46;100.00;101844.03;2074485;28;20429;-68
2022/06/04 02:17:06;;;;;;;10.97;5.93;;;;;;;22.41;100.00;101855.97;2074656;28;20412;-68
2022/06/04 02:18:10;;;;;;;6.73;5.77;;;;;;;22.41;100.00;101843.94;2074544;28;20491;-68
2022/06/04 02:19:11;;;;;;;9.20;5.83;;;;;;;22.38;100.00;101851.31;2074531;28;20424;-68
2022/06/04 02:20:13;;;;;;;10.17;6.20;;;;;;;21.93;100.00;101785.97;2074392;28;20520;-68
2022/06/04 02:21:18;;;;;;;7.77;6.27;;;;;;;22.22;100.00;101832.00;2074475;28;20174;-67
2022/06/04 02:22:18;;;;;;;9.33;5.97;;;;;;;22.22;100.00;101832.00;2081997;28;20420;-67
2022/06/04 02:23:20;;;;;;;9.53;6.50;;;;;;;22.22;100.00;101834.03;2082058;28;20461;-68
2022/06/04 02:24:20;;;;;;;9.30;5.83;;;;;;;21.77;100.00;101766.69;2074485;28;20643;-68
2022/06/04 02:25:21;;;;;;;9.43;6.47;;;;;;;21.82;100.00;101777.28;2074472;28;20792;-68
2022/06/04 02:26:24;;;;;;;9.00;6.27;;;;;;;22.11;100.00;101822.53;2074559;28;20182;-67
2022/06/04 02:27:24;;;;;;;8.63;6.00;;;;;;;22.11;100.00;101817.66;2074482;28;20425;-67
2022/06/04 02:28:25;;;;;;;8.87;6.00;;;;;;;21.69;100.00;101754.97;2081968;28;20427;-68
2022/06/04 02:29:25;;;;;;;11.30;6.43;;;;;;;21.58;100.00;101739.81;2082064;28;20661;-67
2022/06/04 02:30:37;;;;;;;11.70;6.53;;;;;;;22.06;100.00;101814.75;2074343;28;20189;-68
2022/06/04 02:31:52;;;;;;;10.80;6.93;;;;;;;22.05;100.00;101808.31;2074573;28;20166;-68
2022/06/04 02:33:15;;;;;;;13.13;6.40;;;;;;;22.04;100.00;101808.78;2081986;28;20431;-68
2022/06/04 02:34:27;;;;;;;9.93;6.20;;;;;;;21.59;100.00;101741.41;2079258;28;20413;-68
2022/06/04 02:35:51;;;;;;;9.50;6.43;;;;;;;21.54;100.00;101747.72;2074373;28;20428;-68
2022/06/04 02:37:06;;;;;;;9.70;6.20;;;;;;;21.99;100.00;101815.09;2074497;28;20401;-68
2022/06/04 02:38:17;;;;;;;10.13;6.13;;;;;;;21.30;100.00;101718.72;2074479;28;20458;-68
2022/06/04 02:39:31;;;;;;;10.37;6.23;;;;;;;21.98;100.00;101827.66;2074495;28;20834;-68
2022/06/04 02:40:56;;;;;;;11.50;7.00;;;;;;;21.99;100.00;101823.56;2074482;28;20971;-68
2022/06/04 02:42:11;;;;;;;14.17;7.40;;;;;;;22.00;100.00;101839.25;2074412;28;20475;-68
2022/06/04 02:43:37;;;;;;;15.37;6.50;;;;;;;21.46;100.00;101767.03;2074358;28;20431;-68
2022/06/04 02:44:53;;;;;;;8.77;5.77;;;;;;;21.53;100.00;101761.03;2074318;28;20956;-68
2022/06/04 02:46:32;;;;;;;11.67;6.50;;;;;;;21.99;100.00;101841.28;2074390;28;20732;-68
2022/06/04 02:47:45;;;;;;;9.80;6.07;;;;;;;21.95;100.00;101839.91;2074302;28;20848;-68
2022/06/04 02:49:02;;;;;;;11.60;6.33;;;;;;;21.43;100.00;101767.19;2065485;28;20428;-68
2022/06/04 02:50:19;;;;;;;9.03;6.67;;;;;;;21.91;100.00;101840.09;2068023;28;20412;-67
2022/06/04 02:51:26;;;;;;;10.57;7.03;;;;;;;21.61;100.00;101798.91;2074244;28;20422;-68
2022/06/04 02:52:29;;;;;;;8.73;6.80;;;;;;;21.35;100.00;101772.41;2081916;28;20431;-67
2022/06/04 02:53:33;;;;;;;8.60;6.83;;;;;;;21.83;100.00;101847.38;2081511;28;20435;-68
2022/06/04 02:54:39;;;;;;;10.13;6.80;;;;;;;21.83;100.00;101841.72;2074293;28;20936;-67
2022/06/04 02:55:48;;;;;;;10.83;6.63;;;;;;;21.36;100.00;101773.19;2074384;28;20423;-68
2022/06/04 02:56:51;;;;;;;9.63;6.47;;;;;;;21.26;100.00;101760.41;2074239;28;20409;-68
2022/06/04 02:57:56;;;;;;;9.20;5.83;;;;;;;21.79;100.00;101835.47;2074174;28;20488;-67
2022/06/04 02:59:02;;;;;;;8.70;6.17;;;;;;;21.80;100.00;101825.75;2074290;28;20428;-68
2022/06/04 03:00:05;;;;;;;9.33;6.53;;;;;;;21.60;100.00;101808.59;2074171;28;20419;-68
2022/06/04 03:01:09;;;;;;;13.20;6.60;;;;;;;21.84;100.00;101842.47;2074185;28;20874;-67
2022/06/04 03:02:13;;;;;;;13.40;7.10;;;;;;;21.84;100.00;101842.47;2074245;28;20420;-68
2022/06/04 03:03:14;;;;;;;17.90;7.27;;;;;;;21.71;100.00;101814.53;2074210;28;21005;-68
2022/06/04 03:04:14;;;;;;;13.57;6.40;;;;;;;21.89;100.00;101834.16;2074098;28;20789;-68
2022/06/04 03:05:19;;;;;;;10.30;6.33;;;;;;;21.88;100.00;101837.44;2074181;28;20177;-68
2022/06/04 03:06:30;;;;;;;11.50;6.97;;;;;;;21.95;100.00;101839.91;2074214;28;20265;-68
2022/06/04 03:07:31;;;;;;;12.03;6.50;;;;;;;21.90;100.00;101830.06;2074287;28;20900;-67
2022/06/04 03:08:37;;;;;;;12.83;6.67;;;;;;;21.98;100.00;101844.59;2074100;28;20420;-68
2022/06/04 03:09:38;;;;;;;9.33;6.27;;;;;;;21.95;100.00;101843.50;2074259;28;20193;-68
2022/06/04 03:10:39;;;;;;;7.87;5.87;;;;;;;21.42;100.00;101774.88;2074140;28;20427;-68
2022/06/04 03:11:45;;;;;;;8.27;5.97;;;;;;;21.83;100.00;101844.53;2065282;28;20448;-68
2022/06/04 03:12:46;;;;;;;9.43;6.80;;;;;;;21.88;100.00;101843.88;2066036;28;20325;-68
2022/06/04 03:13:47;;;;;;;8.80;6.23;;;;;;;21.62;100.00;101822.22;2074179;28;20427;-68
2022/06/04 03:14:48;;;;;;;10.47;6.07;;;;;;;21.85;100.00;101850.47;2074104;28;20533;-69
2022/06/04 03:15:48;;;;;;;12.43;6.10;;;;;;;21.46;100.00;101783.97;2074020;28;20423;-68
2022/06/04 03:16:49;;;;;;;10.77;5.97;;;;;;;21.91;100.00;101842.13;2073793;28;20651;-67
2022/06/04 03:17:50;;;;;;;11.43;6.30;;;;;;;21.50;100.00;101780.94;2065259;28;20293;-68
2022/06/04 03:18:51;;;;;;;9.80;6.47;;;;;;;21.93;100.00;101845.25;2065459;28;20676;-68
2022/06/04 03:19:51;;;;;;;13.80;6.90;;;;;;;21.99;100.00;101846.13;2065357;28;20853;-68
2022/06/04 03:20:52;;;;;;;9.30;6.83;;;;;;;21.95;100.00;101843.50;2065340;28;20189;-68
2022/06/04 03:21:53;;;;;;;10.37;6.50;;;;;;;21.54;100.00;101784.38;2057170;28;20183;-69
2022/06/04 03:22:53;;;;;;;15.17;6.47;;;;;;;22.04;100.00;101848.28;2065527;28;20257;-68
2022/06/04 03:23:54;;;;;;;11.70;6.43;;;;;;;21.87;100.00;101831.03;2074047;28;20261;-68
2022/06/04 03:24:54;;;;;;;9.57;5.87;;;;;;;22.03;100.00;101841.09;2074190;28;20188;-67
2022/06/04 03:25:55;;;;;;;9.87;6.63;;;;;;;21.98;100.00;101822.81;2073948;28;20639;-68
2022/06/04 03:26:55;;;;;;;10.23;6.30;;;;;;;21.76;100.00;101804.63;2065230;28;20706;-68
2022/06/04 03:27:56;;;;;;;10.00;6.43;;;;;;;21.36;100.00;101736.53;2065400;28;20250;-68
2022/06/04 03:28:57;;;;;;;9.80;6.33;;;;;;;21.66;100.00;101772.06;2074033;28;20545;-68
2022/06/04 03:29:57;;;;;;;7.83;5.90;;;;;;;22.16;100.00;101852.94;2073985;28;20239;-67
2022/06/04 03:30:58;;;;;;;7.17;5.33;;;;;;;22.18;100.00;101851.19;2073926;28;20213;-68
2022/06/04 03:31:58;;;;;;;8.47;6.00;;;;;;;22.21;100.00;101855.09;2073920;28;20252;-68
2022/06/04 03:32:59;;;;;;;12.17;6.33;;;;;;;22.26;100.00;101860.81;2065148;28;20174;-68
2022/06/04 03:34:00;;;;;;;13.37;6.43;;;;;;;22.07;100.00;101833.22;2065275;28;20255;-67
2022/06/04 03:35:00;;;;;;;8.70;6.30;;;;;;;22.31;100.00;101860.16;2073925;28;20201;-68
2022/06/04 03:36:01;;;;;;;9.47;6.43;;;;;;;22.35;100.00;101857.94;2073925;28;20428;-68
2022/06/04 03:37:01;;;;;;;9.60;6.27;;;;;;;22.41;100.00;101858.81;2074043;28;20184;-68
2022/06/04 03:38:03;;;;;;;6.73;5.63;;;;;;;22.46;100.00;101863.06;2073836;28;20696;-68
2022/06/04 03:39:05;;;;;;;11.87;6.30;;;;;;;22.48;100.00;101852.03;2065211;28;20178;-68
2022/06/04 03:40:07;;;;;;;10.07;6.30;;;;;;;22.49;100.00;101854.38;2065233;28;20425;-68
2022/06/04 03:41:07;;;;;;;14.37;6.97;;;;;;;22.17;100.00;101795.19;2065336;28;20837;-68
2022/06/04 03:42:08;;;;;;;16.33;7.30;;;;;;;22.49;100.00;101845.13;2081453;28;20408;-68
2022/06/04 03:43:09;;;;;;;19.43;6.67;;;;;;;22.59;100.00;101850.19;2081571;28;20204;-68
2022/06/04 03:44:09;;;;;;;10.47;5.93;;;;;;;22.61;100.00;101856.13;2073925;28;20424;-67
2022/06/04 03:45:12;;;;;;;10.93;6.23;;;;;;;22.42;100.00;101818.00;2073906;28;20608;-68
2022/06/04 03:46:13;;;;;;;10.07;5.90;;;;;;;22.52;100.00;101825.16;2073885;28;20181;-67
2022/06/04 03:47:16;;;;;;;10.47;5.80;;;;;;;22.68;100.00;101852.16;2073914;28;20182;-68
2022/06/04 03:48:17;;;;;;;9.57;5.90;;;;;;;22.74;100.00;101850.19;2073875;28;20178;-68
2022/06/04 03:49:17;;;;;;;11.10;5.93;;;;;;;22.72;100.00;101847.84;2073843;28;20181;-68
2022/06/04 03:50:18;;;;;;;11.70;6.10;;;;;;;22.73;100.00;101855.06;2073910;28;20178;-68
2022/06/04 03:51:19;;;;;;;11.50;6.20;;;;;;;22.54;100.00;101844.44;2073898;28;20229;-68
2022/06/04 03:52:19;;;;;;;9.70;6.17;;;;;;;22.70;100.00;101849.63;2073806;28;20555;-68
2022/06/04 03:53:20;;;;;;;10.93;5.93;;;;;;;22.77;100.00;101852.81;2073827;28;20208;-68
2022/06/04 03:54:52;;;;;;;7.47;5.33;;;;;;;22.81;100.00;101855.44;2073871;28;20558;-68
2022/06/04 03:55:41;;;;;;;9.53;5.57;;;;;;;22.67;100.00;101845.72;2073767;28;20647;-68
2022/06/04 03:56:41;;;;;;;8.97;5.47;;;;;;;22.42;100.00;101795.41;2073810;28;20877;-68
2022/06/04 03:57:45;;;;;;;10.37;5.73;;;;;;;22.89;100.00;101863.09;2073727;28;20176;-68
2022/06/04 03:58:45;;;;;;;14.27;5.63;;;;;;;22.94;100.00;101864.44;2073910;28;20174;-68
2022/06/04 03:59:51;;;;;;;8.87;5.73;;;;;;;22.69;100.00;101805.66;2073850;28;20228;-68
2022/06/04 04:00:51;;;;;;;10.13;6.20;;;;;;;23.02;100.00;101857.13;2073919;28;20162;-68
2022/06/04 04:01:53;;;;;;;8.07;5.60;;;;;;;23.07;100.00;101853.59;2073742;28;20189;-68
2022/06/04 04:03:04;;;;;;;9.37;5.83;;;;;;;23.03;100.00;101850.19;2073783;28;20177;-68
2022/06/04 04:04:05;;;;;;;12.23;6.70;;;;;;;23.07;100.00;101857.19;2073821;28;20204;-68
2022/06/04 04:05:08;;;;;;;9.47;5.57;;;;;;;23.05;100.00;101862.56;2073817;28;20174;-68
2022/06/04 04:06:16;;;;;;;7.53;5.23;;;;;;;23.04;100.00;101861.03;2073716;28;20185;-68
2022/06/04 04:07:17;;;;;;;9.57;5.40;;;;;;;22.54;100.00;101782.28;2073799;28;20603;-68
2022/06/04 04:08:19;;;;;;;11.87;5.70;;;;;;;23.05;100.00;101856.13;2073737;28;20173;-68
2022/06/04 04:09:20;;;;;;;11.80;5.93;;;;;;;22.95;100.00;101844.16;2073711;28;20216;-68
2022/06/04 04:10:21;;;;;;;8.57;5.73;;;;;;;23.05;100.00;101862.56;2073689;28;20724;-68
2022/06/04 04:11:25;;;;;;;6.30;5.60;;;;;;;23.08;100.00;101872.13;2073729;28;20178;-68
2022/06/04 04:12:28;;;;;;;8.90;5.93;;;;;;;22.64;100.00;101818.44;2073566;28;20182;-68
2022/06/04 04:13:28;;;;;;;7.67;5.73;;;;;;;23.06;100.00;101872.63;2073609;28;20190;-68
2022/06/04 04:14:28;;;;;;;11.87;6.07;;;;;;;23.11;100.00;101871.13;2073688;28;20181;-68
2022/06/04 04:15:29;;;;;;;8.70;5.53;;;;;;;22.43;100.00;101762.28;2073724;28;20188;-68
2022/06/04 04:16:29;;;;;;;7.53;5.37;;;;;;;23.10;100.00;101869.59;2073617;28;20667;-68
2022/06/04 04:17:30;;;;;;;7.77;5.87;;;;;;;23.04;100.00;101861.03;2073596;28;20173;-68
2022/06/04 04:18:31;;;;;;;6.93;5.83;;;;;;;22.99;100.00;101847.56;2073531;28;20178;-68
2022/06/04 04:19:31;;;;;;;9.70;6.30;;;;;;;22.71;100.00;101795.44;2081167;28;20189;-68
2022/06/04 04:20:34;;;;;;;9.57;5.57;;;;;;;23.17;100.00;101855.81;2081253;28;20210;-69
2022/06/04 04:21:40;;;;;;;9.67;6.07;;;;;;;23.17;100.00;101853.00;2073665;28;20182;-69
2022/06/04 04:22:41;;;;;;;7.50;5.50;;;;;;;22.90;100.00;101798.81;2073666;28;20169;-68
2022/06/04 04:23:42;;;;;;;6.80;5.50;;;;;;;23.30;100.00;101841.41;2064830;28;20186;-68
2022/06/04 04:24:42;;;;;;;8.97;5.70;;;;;;;23.40;100.00;101842.84;2064968;28;20178;-68
2022/06/04 04:25:43;;;;;;;9.93;5.67;;;;;;;23.27;100.00;101814.88;2073618;28;20172;-68
2022/06/04 04:26:44;;;;;;;7.63;5.70;;;;;;;23.26;100.00;101806.88;2073630;28;20178;-68
2022/06/04 04:27:44;;;;;;;9.33;5.23;;;;;;;23.58;100.00;101846.19;2073588;28;20658;-68
2022/06/04 04:28:45;;;;;;;8.63;5.03;;;;;;;23.61;100.00;101845.22;2073026;28;20181;-68
2022/06/04 04:29:46;;;;;;;13.43;6.37;;;;;;;23.70;100.00;101855.63;2073650;28;20209;-68
2022/06/04 04:30:46;;;;;;;14.57;5.60;;;;;;;23.40;100.00;101804.03;2073612;28;20174;-68
2022/06/04 04:31:47;;;;;;;10.53;5.80;;;;;;;23.38;100.00;101800.88;2073483;28;20205;-68
2022/06/04 04:32:49;;;;;;;11.37;6.20;;;;;;;23.58;100.00;101820.72;2073499;28;20200;-68
2022/06/04 04:33:49;;;;;;;12.23;5.97;;;;;;;23.48;100.00;101819.28;2073390;28;20177;-68
2022/06/04 04:34:50;;;;;;;11.30;6.20;;;;;;;23.49;100.00;101786.88;2073539;28;20188;-69
2022/06/04 04:35:51;;;;;;;7.57;5.90;;;;;;;24.08;100.00;101875.19;2080943;28;20222;-68
2022/06/04 04:36:51;;;;;;;11.03;5.57;;;;;;;23.68;100.00;101798.72;2081204;28;20192;-69
2022/06/04 04:37:53;;;;;;;9.17;5.53;;;;;;;24.22;100.00;101877.19;2073562;28;20193;-68
2022/06/04 04:38:54;;;;;;;8.87;5.43;;;;;;;24.26;100.00;101877.75;2073588;28;20265;-68
2022/06/04 04:39:54;;;;;;;8.30;5.63;;;;;;;24.28;100.00;101869.50;2073464;28;20186;-68
2022/06/04 04:40:55;;;;;;;9.53;6.03;;;;;;;24.33;100.00;101872.41;2073424;28;20611;-68
2022/06/04 04:41:55;;;;;;;8.83;5.83;;;;;;;24.17;100.00;101846.72;2073478;28;20197;-68
2022/06/04 04:42:57;;;;;;;8.13;5.50;;;;;;;24.36;100.00;101864.97;2073498;28;20244;-68
2022/06/04 04:43:57;;;;;;;9.10;6.03;;;;;;;24.41;100.00;101856.53;2073451;28;20658;-68
2022/06/04 04:44:58;;;;;;;9.17;6.10;;;;;;;24.45;100.00;101865.59;2073442;28;20586;-68
2022/06/04 04:46:11;;;;;;;10.43;5.93;;;;;;;24.24;100.00;101835.75;2073547;28;20170;-68
2022/06/04 04:47:11;;;;;;;8.63;6.33;;;;;;;24.42;100.00;101851.66;2073580;28;20654;-68
2022/06/04 04:48:14;;;;;;;8.97;6.23;;;;;;;24.52;100.00;101858.72;2073471;28;20619;-68
2022/06/04 04:49:14;;;;;;;10.83;5.60;;;;;;;24.32;100.00;101834.03;2073426;28;20181;-68
2022/06/04 04:50:23;;;;;;;9.17;5.73;;;;;;;24.51;100.00;101868.50;2073522;28;20177;-69
2022/06/04 04:51:25;;;;;;;8.43;5.90;;;;;;;24.14;100.00;101813.72;2073487;28;20208;-68
2022/06/04 04:52:27;;;;;;;7.13;5.93;;;;;;;24.07;100.00;101803.63;2073380;28;20184;-68
2022/06/04 04:53:28;;;;;;;7.53;5.43;;;;;;;24.51;100.00;101854.31;2073449;28;20450;-68
2022/06/04 04:54:29;;;;;;;9.70;5.80;;;;;;;24.71;100.00;101874.16;2073510;28;20236;-68
2022/06/04 04:55:30;;;;;;;12.13;6.10;;;;;;;24.77;100.00;101881.41;2073499;28;20177;-68
2022/06/04 04:56:31;;;;;;;7.90;5.60;;;;;;;24.69;100.00;101863.31;2073440;28;20202;-68
2022/06/04 04:57:31;;;;;;;8.27;5.33;;;;;;;24.45;100.00;101808.91;2073305;28;20177;-69
2022/06/04 04:58:32;;;;;;;7.13;5.67;;;;;;;24.96;100.00;101873.31;2073332;28;20185;-68
2022/06/04 04:59:32;;;;;;;9.90;6.37;;;;;;;24.99;100.00;101878.00;2073446;28;20261;-68
2022/06/04 05:00:33;;;;;;;9.30;5.87;;;;;;;25.03;100.00;101870.81;2073448;28;20177;-69
2022/06/04 05:01:34;;;;;;;9.57;5.80;;;;;;;24.87;100.00;101831.00;2073365;28;20181;-68
2022/06/04 05:02:35;;;;;;;9.50;6.30;;;;;;;25.21;100.00;101876.13;2073389;28;20186;-68
2022/06/04 05:03:35;;;;;;;8.57;5.93;;;;;;;25.27;100.00;101870.53;2073329;28;20281;-68
2022/06/04 05:04:36;;;;;;;8.43;6.50;;;;;;;25.19;100.00;101858.06;2064515;28;20245;-68
2022/06/04 05:05:37;;;;;;;9.70;6.60;;;;;;;24.67;100.00;101783.63;2064668;28;20252;-68
2022/06/04 05:06:38;;;;;;;9.80;6.60;;;;;;;25.26;100.00;101864.09;2064540;28;20182;-68
2022/06/04 05:07:40;;;;;;;8.83;5.87;;;;;;;25.23;100.00;101861.44;2064665;28;20178;-68
2022/06/04 05:08:41;;;;;;;13.23;6.60;;;;;;;25.18;100.00;101868.63;2073330;28;20174;-68
2022/06/04 05:09:41;;;;;;;9.13;6.50;;;;;;;25.15;100.00;101854.66;2073384;28;20651;-69